Time;durP1;ratioP1;P1;durP2;ratioP2;P2;SDS_P1;SDS_P2;PMS_P1;PMS_P2;Temp;Humidity;BMP_temperature;BMP_pressure;BME280_temperature;BME280_humidity;BME280_pressure;Samples;Min_cycle;Max_cycle;Signal;HPM_P1;HPM_P2
2021/03/25 00:01:56;;;;;;;13.98;8.28;;;;;;;-0.08;57.38;99673.16;1709657;84;21232;-67
2021/03/25 00:04:24;;;;;;;14.90;8.08;;;;;;;-0.05;57.30;99670.03;1709640;84;21306;-67
2021/03/25 00:06:55;;;;;;;16.35;8.93;;;;;;;-0.07;57.26;99673.56;1709971;84;21196;-67
2021/03/25 00:09:30;;;;;;;15.90;8.43;;;;;;;-0.03;57.18;99664.78;1709628;84;21298;-67
2021/03/25 00:11:59;;;;;;;17.45;8.30;;;;;;;-0.07;57.19;99667.06;1709642;84;21306;-67
2021/03/25 00:14:28;;;;;;;16.60;8.85;;;;;;;-0.05;57.07;99662.23;1709772;84;21152;-67
2021/03/25 00:16:55;;;;;;;15.60;8.35;;;;;;;-0.11;57.13;99657.20;1709828;84;21196;-67
2021/03/25 00:19:24;;;;;;;16.60;8.88;;;;;;;-0.06;56.96;99658.37;1709567;84;21195;-67
2021/03/25 00:21:52;;;;;;;14.95;8.63;;;;;;;-0.12;56.99;99661.98;1709853;84;21152;-67
2021/03/25 00:24:20;;;;;;;14.05;7.70;;;;;;;-0.07;56.86;99655.38;1709605;84;21199;-67
2021/03/25 00:26:48;;;;;;;14.00;8.48;;;;;;;-0.09;56.82;99653.25;1709707;83;21700;-66
2021/03/25 00:29:15;;;;;;;17.02;8.30;;;;;;;-0.02;56.46;99652.19;1709786;84;21191;-67
2021/03/25 00:31:44;;;;;;;15.90;9.55;;;;;;;-0.04;56.36;99653.97;1709687;83;21179;-66
2021/03/25 00:34:12;;;;;;;15.45;8.98;;;;;;;0.02;56.10;99652.50;1709683;84;21175;-66
2021/03/25 00:36:40;;;;;;;16.37;9.00;;;;;;;0.00;56.24;99659.52;1709983;84;21179;-67
2021/03/25 00:39:10;;;;;;;17.70;9.43;;;;;;;0.04;56.15;99658.95;1709944;84;21588;-67
2021/03/25 00:41:37;;;;;;;17.75;10.20;;;;;;;-0.02;56.20;99661.29;1709908;84;21183;-67
2021/03/25 00:44:09;;;;;;;15.58;9.88;;;;;;;0.00;56.21;99654.31;1710056;83;21624;-66
2021/03/25 00:46:36;;;;;;;17.12;9.83;;;;;;;-0.03;56.31;99652.62;1709754;84;21184;-67
2021/03/25 00:49:04;;;;;;;15.58;9.35;;;;;;;0.02;56.18;99668.10;1709842;84;21192;-67
2021/03/25 00:51:31;;;;;;;14.58;9.08;;;;;;;-0.03;56.39;99662.18;1709875;84;21612;-67
2021/03/25 00:53:59;;;;;;;20.40;9.78;;;;;;;-0.01;56.50;99655.20;1689639;84;21209;-66
2021/03/25 00:56:26;;;;;;;16.73;9.50;;;;;;;-0.07;56.65;99664.00;1709908;84;21297;-67
2021/03/25 00:58:53;;;;;;;22.85;10.53;;;;;;;-0.03;56.74;99659.58;1709973;84;21616;-67
2021/03/25 01:01:21;;;;;;;22.25;10.82;;;;;;;-0.08;56.99;99650.59;1710024;83;21199;-66
2021/03/25 01:03:49;;;;;;;19.52;10.00;;;;;;;-0.05;56.94;99658.33;1709960;84;21187;-66
2021/03/25 01:06:17;;;;;;;29.12;13.35;;;;;;;-0.08;56.91;99654.95;1709933;84;21148;-67
2021/03/25 01:08:44;;;;;;;37.63;15.83;;;;;;;-0.08;57.03;99657.56;1710114;84;21155;-66
2021/03/25 01:11:17;;;;;;;46.80;18.45;;;;;;;-0.13;57.24;99660.73;1718251;83;21146;-66
2021/03/25 01:13:54;;;;;;;45.90;18.82;;;;;;;-0.14;57.36;99660.32;1723728;83;21151;-66
2021/03/25 01:16:32;;;;;;;41.35;17.15;;;;;;;-0.21;57.70;99662.25;1723707;83;21560;-66
2021/03/25 01:19:03;;;;;;;32.65;15.40;;;;;;;-0.22;57.75;99657.51;1723714;83;21175;-66
2021/03/25 01:21:31;;;;;;;36.65;15.78;;;;;;;-0.28;57.98;99662.87;1723362;83;21163;-67
2021/03/25 01:24:00;;;;;;;36.08;16.67;;;;;;;-0.27;58.15;99659.38;1697166;83;21178;-66
2021/03/25 01:26:29;;;;;;;42.53;18.02;;;;;;;-0.35;58.44;99655.66;1723458;83;21579;-66
2021/03/25 01:29:00;;;;;;;42.23;18.45;;;;;;;-0.30;58.47;99663.80;1723397;83;21198;-66
2021/03/25 01:31:29;;;;;;;40.33;17.80;;;;;;;-0.35;58.67;99658.72;1723309;83;21178;-67
2021/03/25 01:34:00;;;;;;;44.15;18.00;;;;;;;-0.31;58.60;99656.90;1723772;83;21183;-66
2021/03/25 01:36:28;;;;;;;52.88;19.20;;;;;;;-0.39;58.75;99660.55;1723451;83;21127;-66
2021/03/25 01:38:58;;;;;;;46.98;19.82;;;;;;;-0.37;58.79;99656.17;1723346;83;21171;-66
2021/03/25 01:41:31;;;;;;;47.70;20.30;;;;;;;-0.44;59.02;99649.87;1723242;83;21183;-67
2021/03/25 01:44:02;;;;;;;63.50;23.95;;;;;;;-0.43;59.10;99656.79;1723424;83;21326;-66
2021/03/25 01:46:38;;;;;;;55.73;21.95;;;;;;;-0.50;59.35;99646.98;1697118;83;21266;-67
2021/03/25 01:49:15;;;;;;;58.05;23.85;;;;;;;-0.52;59.54;99649.63;1723295;83;21191;-67
2021/03/25 01:52:03;;;;;;;61.92;25.25;;;;;;;-0.59;59.81;99653.30;1723453;83;21147;-66
2021/03/25 01:55:02;;;;;;;64.10;23.75;;;;;;;-0.56;59.85;99661.00;1723103;83;21162;-66
2021/03/25 01:58:21;;;;;;;51.15;22.15;;;;;;;-0.64;60.15;99660.33;1723260;83;21147;-66
2021/03/25 02:00:59;;;;;;;46.02;20.62;;;;;;;-0.68;60.34;99660.00;1723297;83;21163;-67
2021/03/25 02:04:07;;;;;;;43.28;18.95;;;;;;;-0.71;60.54;99661.40;1696917;83;21166;-67
2021/03/25 02:07:06;;;;;;;39.20;18.00;;;;;;;-0.74;60.50;99654.53;1699908;83;21600;-67
2021/03/25 02:09:55;;;;;;;40.90;18.30;;;;;;;-0.73;60.53;99670.96;1723623;83;21183;-67
2021/03/25 02:13:16;;;;;;;41.02;17.37;;;;;;;-0.81;60.75;99656.03;1691482;84;21177;-67
2021/03/25 02:16:17;;;;;;;39.20;17.82;;;;;;;-0.83;60.98;99656.91;1715117;84;21182;-67
2021/03/25 02:19:19;;;;;;;35.85;14.33;;;;;;;-0.91;61.15;99660.59;1692763;84;21336;-67
2021/03/25 02:22:14;;;;;;;40.67;15.98;;;;;;;-1.02;61.54;99653.92;1715139;84;21170;-67
2021/03/25 02:25:03;;;;;;;35.30;16.20;;;;;;;-1.11;61.88;99655.88;1715196;83;21304;-67
2021/03/25 02:27:52;;;;;;;38.42;17.40;;;;;;;-1.20;62.23;99666.89;1712824;84;21590;-66
2021/03/25 02:30:47;;;;;;;;;;;;;;;-1.17;62.24;99655.12;1718006;84;21131;-67
2021/03/25 02:33:22;;;;;;;32.20;15.83;;;;;;;-1.17;62.19;99651.23;1675404;84;20149;-67
2021/03/25 02:35:57;;;;;;;27.50;13.58;;;;;;;-1.21;62.15;99650.91;1713872;84;21195;-67
2021/03/25 02:38:47;;;;;;;26.70;12.23;;;;;;;-1.18;62.16;99658.64;1715441;84;21538;-67
2021/03/25 02:41:39;;;;;;;23.70;12.20;;;;;;;-1.19;62.01;99647.84;1715463;84;21146;-67
2021/03/25 02:44:11;;;;;;;18.95;10.80;;;;;;;-1.16;61.89;99641.73;1691207;84;21319;-67
2021/03/25 02:46:50;;;;;;;24.02;11.80;;;;;;;-1.18;61.81;99655.17;1715123;84;21163;-67
2021/03/25 02:49:19;;;;;;;22.27;11.75;;;;;;;-1.17;61.87;99646.05;1687816;84;21198;-67
2021/03/25 02:51:52;;;;;;;28.50;13.50;;;;;;;-1.22;62.15;99647.90;1715370;83;21630;-67
2021/03/25 02:54:21;;;;;;;29.92;13.90;;;;;;;-1.25;62.27;99646.69;1715456;83;21575;-67
2021/03/25 02:56:53;;;;;;;33.45;15.75;;;;;;;-1.33;62.55;99648.59;1687351;84;21331;-67
2021/03/25 02:59:36;;;;;;;27.62;12.75;;;;;;;-1.34;62.60;99651.64;1715162;84;21155;-67
2021/03/25 03:02:19;;;;;;;24.95;11.15;;;;;;;-1.38;62.80;99649.14;1715141;84;21114;-67
2021/03/25 03:04:50;;;;;;;22.37;10.40;;;;;;;-1.37;62.84;99652.16;1715022;84;21166;-67
2021/03/25 03:07:24;;;;;;;21.05;10.50;;;;;;;-1.42;63.03;99657.89;1715139;83;21174;-67
2021/03/25 03:09:56;;;;;;;17.17;9.30;;;;;;;-1.38;63.00;99659.09;1712820;84;21356;-67
2021/03/25 03:12:30;;;;;;;19.77;10.13;;;;;;;-1.41;63.09;99651.81;1701470;83;21170;-67
2021/03/25 03:15:14;;;;;;;20.48;9.95;;;;;;;-1.34;62.99;99655.53;1731027;83;21170;-67
2021/03/25 03:17:48;;;;;;;22.25;9.95;;;;;;;-1.38;63.00;99657.80;1704273;83;21740;-67
2021/03/25 03:20:50;;;;;;;;;;;;;;;-1.32;62.88;99661.55;1717453;83;21218;-66
2021/03/25 03:23:30;;;;;;;19.55;9.58;;;;;;;-1.33;63.05;99658.97;1710101;83;20539;-66
2021/03/25 03:26:02;;;;;;;17.07;9.45;;;;;;;-1.33;63.08;99662.86;1703711;83;21166;-66
2021/03/25 03:28:47;;;;;;;19.80;9.38;;;;;;;-1.32;63.08;99656.79;1730780;83;21154;-66
2021/03/25 03:31:24;;;;;;;19.30;8.95;;;;;;;-1.35;63.11;99666.80;1729992;83;21174;-66
2021/03/25 03:33:56;;;;;;;19.75;10.68;;;;;;;-1.35;63.10;99660.77;1730711;83;21170;-66
2021/03/25 03:36:24;;;;;;;19.05;9.50;;;;;;;-1.38;63.18;99654.33;1730710;83;21178;-67
2021/03/25 03:39:05;;;;;;;15.18;9.45;;;;;;;-1.38;63.15;99655.63;1730770;83;21186;-66
2021/03/25 03:41:52;;;;;;;23.30;11.20;;;;;;;-1.42;63.36;99659.19;1730670;83;21111;-66
2021/03/25 03:44:27;;;;;;;21.82;10.63;;;;;;;-1.39;63.27;99661.73;1704589;83;21115;-66
2021/03/25 03:46:56;;;;;;;21.23;11.10;;;;;;;-1.44;63.45;99655.80;1704374;83;21312;-66
2021/03/25 03:49:48;;;;;;;19.35;10.68;;;;;;;-1.43;63.49;99656.17;1704005;83;21321;-66
2021/03/25 03:52:20;;;;;;;22.15;12.05;;;;;;;-1.51;63.68;99658.52;1730731;83;21224;-66
2021/03/25 03:54:50;;;;;;;;;;;;;;;-1.47;63.67;99661.03;1733685;83;21199;-66
2021/03/25 03:57:42;;;;;;;23.02;11.88;;;;;;;-1.50;63.76;99666.72;1731128;83;20459;-66
2021/03/25 04:00:36;;;;;;;23.60;10.82;;;;;;;-1.52;63.82;99671.53;1729236;83;21155;-66
2021/03/25 04:03:14;;;;;;;25.92;11.50;;;;;;;-1.52;63.85;99660.70;1731178;83;21138;-65
2021/03/25 04:06:22;;;;;;;25.75;13.32;;;;;;;-1.51;63.85;99665.00;1730967;83;21178;-66
2021/03/25 04:09:11;;;;;;;25.97;12.55;;;;;;;-1.44;63.85;99657.09;1779955;79;23493;-67
2021/03/25 04:11:57;;;;;;;27.95;13.93;;;;;;;-1.50;63.89;99662.83;1752258;82;21758;-66
2021/03/25 04:14:36;;;;;;;26.77;12.90;;;;;;;-1.44;63.83;99660.98;1752824;82;21159;-66
2021/03/25 04:17:25;;;;;;;26.65;13.70;;;;;;;-1.30;63.76;99664.11;1779923;79;22922;-67
2021/03/25 04:20:04;;;;;;;25.45;12.90;;;;;;;-1.13;63.42;99666.30;1753057;82;21138;-66
2021/03/25 04:22:58;;;;;;;24.60;13.25;;;;;;;-0.97;63.05;99655.12;1751765;82;21167;-67
2021/03/25 04:25:37;;;;;;;25.40;13.15;;;;;;;-0.91;62.84;99664.06;1706306;82;21220;-68
2021/03/25 04:28:24;;;;;;;20.72;12.03;;;;;;;-0.85;62.80;99659.98;1722908;83;21167;-66
2021/03/25 04:30:53;;;;;;;20.70;11.93;;;;;;;-0.72;62.57;99668.77;1723470;83;21195;-66
2021/03/25 04:33:23;;;;;;;22.50;12.63;;;;;;;-0.59;62.37;99670.61;1723093;83;21179;-67
2021/03/25 04:35:51;;;;;;;28.92;11.93;;;;;;;-0.54;62.17;99676.11;1723087;83;21171;-66
2021/03/25 04:38:25;;;;;;;22.80;12.40;;;;;;;-0.46;62.15;99676.34;1723416;83;21216;-66
2021/03/25 04:40:57;;;;;;;23.90;12.65;;;;;;;-0.39;62.05;99670.09;1721720;83;21139;-66
2021/03/25 04:43:26;;;;;;;21.12;12.25;;;;;;;-0.34;62.11;99678.63;1722928;83;21162;-66
2021/03/25 04:46:27;;;;;;;25.45;12.45;;;;;;;-0.20;62.03;99668.70;1723116;83;21352;-66
2021/03/25 04:48:57;;;;;;;20.00;12.07;;;;;;;0.15;61.40;99668.17;1723336;83;21119;-66
2021/03/25 04:51:25;;;;;;;20.82;11.18;;;;;;;0.63;60.35;99665.44;1723405;83;21601;-66
2021/03/25 04:54:17;;;;;;;16.15;10.23;;;;;;;0.85;59.56;99667.38;1723379;82;21317;-66
2021/03/25 04:56:45;;;;;;;10.80;6.87;;;;;;;1.11;59.18;99667.84;1721966;83;21214;-66
2021/03/25 04:59:12;;;;;;;14.80;6.87;;;;;;;1.51;57.62;99663.48;1723258;83;21119;-66
2021/03/25 05:01:39;;;;;;;12.00;6.28;;;;;;;1.79;57.12;99671.19;1723174;83;21623;-66
2021/03/25 05:04:07;;;;;;;10.00;6.22;;;;;;;2.07;56.98;99659.77;1723388;83;21180;-67
2021/03/25 05:06:49;;;;;;;9.20;5.53;;;;;;;2.33;55.11;99664.46;1723062;82;21158;-66
2021/03/25 05:09:21;;;;;;;10.87;6.20;;;;;;;2.45;55.21;99667.45;1723749;83;21171;-66
2021/03/25 05:11:48;;;;;;;10.15;5.85;;;;;;;2.71;54.43;99670.84;1723200;83;21162;-66
2021/03/25 05:14:27;;;;;;;9.60;5.67;;;;;;;2.92;53.49;99668.28;1723406;83;21155;-66
2021/03/25 05:17:09;;;;;;;10.05;5.50;;;;;;;3.09;52.50;99672.36;1714119;83;21191;-66
2021/03/25 05:20:17;;;;;;;12.53;5.47;;;;;;;3.19;51.73;99677.23;1707302;84;21187;-66
2021/03/25 05:23:19;;;;;;;11.45;5.85;;;;;;;3.24;51.85;99681.81;1685902;85;21199;-66
2021/03/25 05:26:10;;;;;;;12.93;5.83;;;;;;;3.48;50.72;99675.14;1710469;82;21152;-66
2021/03/25 05:28:44;;;;;;;11.50;5.75;;;;;;;3.61;50.24;99688.11;1709866;84;21171;-66
2021/03/25 05:31:14;;;;;;;9.60;5.70;;;;;;;3.73;50.31;99676.27;1709813;84;21140;-66
2021/03/25 05:33:43;;;;;;;8.88;5.62;;;;;;;3.88;49.52;99679.52;1710007;84;21183;-66
2021/03/25 05:36:11;;;;;;;10.10;5.80;;;;;;;3.98;49.43;99685.20;1709877;83;21307;-66
2021/03/25 05:38:38;;;;;;;10.50;6.40;;;;;;;4.01;48.92;99681.60;1710125;84;21606;-66
2021/03/25 05:41:13;;;;;;;10.72;5.95;;;;;;;4.05;48.34;99688.39;1710100;84;21151;-67
2021/03/25 05:44:09;;;;;;;13.05;6.45;;;;;;;3.99;48.49;99685.60;1709829;84;21132;-66
2021/03/25 05:47:03;;;;;;;12.95;6.90;;;;;;;3.98;48.41;99685.20;1709994;84;21612;-66
2021/03/25 05:49:45;;;;;;;12.60;6.50;;;;;;;4.00;48.28;99683.34;1709906;84;21132;-66
2021/03/25 05:52:39;;;;;;;11.97;7.08;;;;;;;4.08;47.75;99693.51;1709640;82;21337;-66
2021/03/25 05:55:20;;;;;;;10.45;6.92;;;;;;;4.07;47.85;99695.73;1710113;84;21286;-66
2021/03/25 05:58:24;;;;;;;15.85;6.75;;;;;;;4.08;47.65;99689.11;1708724;84;21655;-66
2021/03/25 06:01:37;;;;;;;15.18;7.25;;;;;;;4.06;47.44;99693.55;1710071;84;21326;-66
2021/03/25 06:04:22;;;;;;;10.43;6.28;;;;;;;4.08;47.82;99699.58;1710019;84;21277;-66
2021/03/25 06:07:18;;;;;;;13.58;7.00;;;;;;;4.18;47.26;99699.16;1701953;84;21603;-66
2021/03/25 06:10:19;;;;;;;10.90;6.90;;;;;;;4.13;47.24;99703.75;1696368;84;21124;-65
2021/03/25 06:12:57;;;;;;;12.30;6.00;;;;;;;4.05;47.85;99704.09;1710026;84;21124;-66
2021/03/25 06:15:42;;;;;;;14.20;6.80;;;;;;;3.98;47.21;99705.27;1709738;84;21302;-67
2021/03/25 06:18:36;;;;;;;9.13;5.97;;;;;;;3.97;47.25;99699.20;1709923;84;21168;-66
2021/03/25 06:21:34;;;;;;;9.70;6.08;;;;;;;3.99;46.13;99714.39;1709797;84;21160;-68
2021/03/25 06:25:00;;;;;;;9.85;5.80;;;;;;;3.91;46.56;99702.08;1709799;84;21751;-66
2021/03/25 06:28:06;;;;;;;9.68;6.00;;;;;;;3.84;46.90;99716.36;1709982;83;21160;-66
2021/03/25 06:30:40;;;;;;;9.25;5.40;;;;;;;3.86;46.89;99715.38;1709913;84;21325;-66
2021/03/25 06:33:25;;;;;;;10.70;6.30;;;;;;;3.92;46.69;99712.94;1709732;84;21200;-66
2021/03/25 06:35:54;;;;;;;9.70;5.45;;;;;;;3.91;46.47;99706.00;1709642;83;21188;-66
2021/03/25 06:38:40;;;;;;;11.70;6.25;;;;;;;3.91;46.84;99724.31;1709951;84;21159;-67
2021/03/25 06:41:19;;;;;;;10.53;6.37;;;;;;;3.90;46.75;99720.00;1709726;84;21294;-66
2021/03/25 06:44:07;;;;;;;8.90;6.10;;;;;;;3.84;47.23;99704.59;1709993;84;21155;-66
2021/03/25 06:46:44;;;;;;;12.28;6.67;;;;;;;3.87;47.61;99704.45;1709564;83;21167;-67
2021/03/25 06:49:34;;;;;;;13.43;6.12;;;;;;;3.93;47.74;99706.80;1709752;83;21190;-66
2021/03/25 06:52:25;;;;;;;9.13;6.05;;;;;;;4.03;46.76;99701.55;1710031;84;21203;-66
2021/03/25 06:55:17;;;;;;;12.33;6.30;;;;;;;4.12;46.90;99702.05;1709776;83;21198;-66
2021/03/25 06:58:00;;;;;;;10.55;6.20;;;;;;;4.12;46.69;99698.99;1710018;83;21219;-66
2021/03/25 07:00:30;;;;;;;11.75;6.00;;;;;;;4.19;46.22;99698.25;1709695;83;21339;-66
2021/03/25 07:02:57;;;;;;;9.55;5.60;;;;;;;4.27;45.77;99703.97;1709763;84;21175;-66
2021/03/25 07:05:30;;;;;;;9.48;4.95;;;;;;;4.24;44.41;99709.36;1713469;84;21183;-67
2021/03/25 07:08:17;;;;;;;9.20;4.97;;;;;;;4.20;44.67;99709.95;1710161;84;21199;-68
2021/03/25 07:10:56;;;;;;;9.65;5.53;;;;;;;4.24;43.25;99710.67;1709979;83;21620;-67
2021/03/25 07:13:31;;;;;;;7.40;4.53;;;;;;;4.21;43.26;99717.37;1709778;84;21306;-67
2021/03/25 07:16:01;;;;;;;11.30;5.62;;;;;;;4.21;43.48;99706.42;1710765;83;21174;-66
2021/03/25 07:19:00;;;;;;;8.50;4.70;;;;;;;4.23;43.47;99709.84;1723271;83;21159;-66
2021/03/25 07:21:35;;;;;;;12.00;4.70;;;;;;;4.27;41.86;99709.21;1723366;83;21171;-66
2021/03/25 07:24:08;;;;;;;8.00;4.40;;;;;;;4.22;41.50;99702.89;1723309;83;21180;-66
2021/03/25 07:26:44;;;;;;;11.28;4.33;;;;;;;4.16;41.71;99704.95;1723549;83;21568;-68
2021/03/25 07:29:26;;;;;;;11.12;4.58;;;;;;;4.11;41.82;99701.21;1723445;83;21175;-68
2021/03/25 07:32:08;;;;;;;7.03;4.00;;;;;;;4.10;42.19;99697.76;1723024;83;21190;-67
2021/03/25 07:34:50;;;;;;;8.30;3.98;;;;;;;4.09;41.91;99694.74;1723220;83;21163;-66
2021/03/25 07:37:36;;;;;;;7.22;3.87;;;;;;;4.13;40.58;99690.66;1723208;83;21182;-66
2021/03/25 07:40:29;;;;;;;6.80;3.85;;;;;;;4.16;40.64;99695.78;1723256;83;22190;-66
2021/03/25 07:42:59;;;;;;;7.50;3.80;;;;;;;4.15;39.65;99683.14;1722837;83;21535;-66
2021/03/25 07:45:33;;;;;;;6.33;3.90;;;;;;;4.16;40.29;99690.55;1721433;83;21167;-66
2021/03/25 07:48:22;;;;;;;6.92;3.50;;;;;;;4.23;40.35;99682.79;1722077;83;21179;-67
2021/03/25 07:50:52;;;;;;;5.17;3.25;;;;;;;4.28;38.10;99693.90;1723146;83;21228;-67
2021/03/25 07:53:27;;;;;;;7.50;3.98;;;;;;;4.34;37.93;99684.47;1723268;83;21243;-67
2021/03/25 07:56:10;;;;;;;6.00;3.60;;;;;;;4.36;38.27;99690.49;1723122;83;21190;-67
2021/03/25 07:58:47;;;;;;;9.95;3.87;;;;;;;4.45;38.60;99672.20;1723191;83;21638;-67
2021/03/25 08:01:21;;;;;;;6.47;3.30;;;;;;;4.54;38.12;99679.63;1723444;83;21624;-66
2021/03/25 08:03:52;;;;;;;7.35;3.77;;;;;;;4.51;36.50;99690.70;1723151;83;21124;-67
2021/03/25 08:06:38;;;;;;;8.50;3.85;;;;;;;4.49;38.22;99679.44;1723589;83;21115;-66
2021/03/25 08:09:15;;;;;;;5.83;3.75;;;;;;;4.48;38.62;99686.92;1723223;83;21163;-66
2021/03/25 08:12:02;;;;;;;7.97;4.17;;;;;;;4.52;37.97;99676.69;1723149;83;21171;-66
2021/03/25 08:14:32;;;;;;;7.92;3.80;;;;;;;4.58;38.30;99676.41;1723216;83;21190;-67
2021/03/25 08:17:07;;;;;;;6.47;3.58;;;;;;;4.61;37.50;99678.88;1718257;83;21317;-66
2021/03/25 08:20:02;;;;;;;6.70;3.60;;;;;;;4.65;37.06;99685.66;1709031;84;21734;-66
2021/03/25 08:22:46;;;;;;;7.65;3.85;;;;;;;4.73;37.52;99687.92;1709709;84;21180;-66
2021/03/25 08:28:49;;;;;;;5.55;3.08;;;;;;;4.85;37.24;99683.89;1819343;79;23496;-66
2021/03/25 08:31:49;;;;;;;6.17;3.08;;;;;;;4.79;36.23;99684.17;1793040;80;21157;-66
2021/03/25 08:34:34;;;;;;;6.37;3.83;;;;;;;4.79;36.50;99684.17;1771040;80;21134;-66
2021/03/25 08:37:13;;;;;;;7.62;3.70;;;;;;;4.84;36.73;99697.91;1792647;80;21159;-66
2021/03/25 08:40:12;;;;;;;7.03;3.85;;;;;;;4.82;35.78;99694.50;1792757;80;21171;-66
2021/03/25 08:42:44;;;;;;;9.08;3.45;;;;;;;4.84;36.75;99689.57;1792894;80;21638;-65
2021/03/25 08:45:50;;;;;;;4.15;2.90;;;;;;;4.88;35.69;99692.42;1792850;80;21163;-65
2021/03/25 08:48:33;;;;;;;6.20;3.22;;;;;;;4.99;35.70;99701.58;1792537;80;21639;-65
2021/03/25 08:51:25;;;;;;;3.50;2.25;;;;;;;5.02;34.29;99687.84;1790884;80;21356;-65
2021/03/25 08:54:04;;;;;;;3.98;2.98;;;;;;;5.04;33.58;99687.31;1724639;83;21604;-66
2021/03/25 08:56:44;;;;;;;5.60;2.85;;;;;;;5.10;34.66;99684.84;1728017;83;21572;-66
2021/03/25 08:59:23;;;;;;;6.05;2.80;;;;;;;5.16;34.93;99677.99;1724454;83;21351;-66
2021/03/25 09:01:58;;;;;;;5.40;3.45;;;;;;;5.20;34.38;99680.01;1728084;83;21187;-66
2021/03/25 09:04:26;;;;;;;6.53;3.35;;;;;;;5.21;34.87;99679.09;1724636;83;21203;-66
2021/03/25 09:06:53;;;;;;;7.17;3.70;;;;;;;5.25;35.97;99671.45;1699074;83;21691;-66
2021/03/25 09:09:47;;;;;;;6.58;3.30;;;;;;;5.23;35.46;99669.35;1650846;83;21167;-66
2021/03/25 09:12:24;;;;;;;7.30;3.17;;;;;;;5.32;35.23;99677.23;1728270;83;21151;-66
2021/03/25 09:14:51;;;;;;;5.97;2.98;;;;;;;5.42;34.78;99675.84;1724595;83;21623;-66
2021/03/25 09:17:22;;;;;;;5.03;3.10;;;;;;;5.43;34.38;99676.23;1728035;83;21171;-67
2021/03/25 09:19:54;;;;;;;4.00;2.98;;;;;;;5.44;33.94;99686.28;1724671;83;21577;-67
2021/03/25 09:22:48;;;;;;;6.05;2.90;;;;;;;5.43;33.49;99680.64;1728013;83;21180;-67
2021/03/25 09:25:27;;;;;;;4.72;2.70;;;;;;;5.45;33.38;99684.02;1724642;83;21194;-67
2021/03/25 09:28:09;;;;;;;3.75;2.50;;;;;;;5.40;31.85;99673.78;1701841;83;21354;-66
2021/03/25 09:31:09;;;;;;;4.00;2.72;;;;;;;5.39;32.64;99678.16;1752628;82;21588;-68
2021/03/25 09:33:55;;;;;;;4.95;2.80;;;;;;;5.42;33.76;99673.22;1752727;82;21179;-66
2021/03/25 09:36:37;;;;;;;5.00;2.85;;;;;;;5.49;33.90;99682.97;1752345;81;21148;-66
2021/03/25 09:39:34;;;;;;;6.22;2.80;;;;;;;5.52;32.90;99670.99;1751968;81;21160;-66
2021/03/25 09:42:20;;;;;;;4.60;2.80;;;;;;;5.61;34.00;99667.89;1752093;81;21192;-66
2021/03/25 09:44:49;;;;;;;4.72;2.77;;;;;;;5.72;34.33;99663.42;1749269;81;21144;-66
2021/03/25 09:47:36;;;;;;;7.85;2.80;;;;;;;5.74;34.32;99663.73;1750636;81;21791;-68
2021/03/25 09:50:17;;;;;;;8.20;2.90;;;;;;;5.76;33.65;99666.27;1752120;82;21124;-68
2021/03/25 09:53:16;;;;;;;7.33;2.75;;;;;;;5.80;32.50;99666.96;1752204;81;21639;-66
2021/03/25 09:56:02;;;;;;;6.05;2.83;;;;;;;5.80;32.55;99663.02;1733456;82;21534;-66
2021/03/25 09:58:43;;;;;;;6.37;2.83;;;;;;;5.78;32.12;99670.98;1752039;81;21672;-66
2021/03/25 10:01:10;;;;;;;4.95;3.02;;;;;;;5.79;32.71;99665.26;1751615;81;21159;-66
2021/03/25 10:04:05;;;;;;;4.25;2.75;;;;;;;5.76;32.56;99662.80;1751975;81;21117;-66
2021/03/25 10:06:51;;;;;;;5.40;2.80;;;;;;;5.82;32.10;99662.46;1752262;82;21152;-66
2021/03/25 10:09:52;;;;;;;11.55;3.17;;;;;;;5.94;32.08;99674.95;1752366;81;21321;-66
2021/03/25 10:13:05;;;;;;;6.37;3.02;;;;;;;6.05;32.20;99671.34;1752251;81;21175;-66
2021/03/25 10:15:41;;;;;;;7.72;3.25;;;;;;;6.12;31.55;99661.83;1664464;85;21198;-66
2021/03/25 10:18:13;;;;;;;5.78;3.10;;;;;;;6.16;31.57;99671.23;1746309;81;21195;-66
2021/03/25 10:20:53;;;;;;;9.63;3.77;;;;;;;6.23;31.98;99656.84;1752430;82;21199;-66
2021/03/25 10:23:52;;;;;;;6.08;3.05;;;;;;;6.27;32.18;99663.63;1752145;82;21160;-67
2021/03/25 10:26:37;;;;;;;7.55;4.25;;;;;;;6.36;32.88;99656.55;1753894;80;21151;-66
2021/03/25 10:29:25;;;;;;;5.75;3.30;;;;;;;6.46;33.15;99649.48;1740253;81;21541;-67
2021/03/25 10:31:57;;;;;;;8.18;4.53;;;;;;;6.50;33.60;99658.43;1767222;81;21160;-66
2021/03/25 10:34:32;;;;;;;8.25;3.30;;;;;;;6.63;33.14;99659.08;1689968;84;21164;-67
2021/03/25 10:37:38;;;;;;;5.28;3.50;;;;;;;6.70;32.71;99656.02;1767719;81;21589;-66
2021/03/25 10:40:36;;;;;;;7.45;3.67;;;;;;;6.70;33.15;99653.39;1767454;81;21180;-67
2021/03/25 10:43:20;;;;;;;8.10;3.50;;;;;;;6.68;33.74;99649.99;1689664;85;21191;-66
2021/03/25 10:45:57;;;;;;;4.87;3.00;;;;;;;6.75;32.69;99656.22;1739690;81;21565;-67
2021/03/25 10:48:42;;;;;;;5.87;3.17;;;;;;;6.78;30.93;99650.78;1767479;81;21302;-66
2021/03/25 10:51:18;;;;;;;5.10;3.37;;;;;;;6.77;30.56;99653.05;1689847;84;21608;-66
2021/03/25 10:53:53;;;;;;;5.65;3.50;;;;;;;6.79;32.25;99649.41;1767400;81;21168;-66
2021/03/25 10:56:37;;;;;;;5.58;3.65;;;;;;;6.85;32.02;99641.18;1767700;81;21165;-66
2021/03/25 10:59:17;;;;;;;4.95;3.20;;;;;;;6.93;32.14;99635.48;1767558;81;21601;-67
2021/03/25 11:01:55;;;;;;;5.42;3.65;;;;;;;7.02;32.73;99637.58;1767712;81;21096;-66
2021/03/25 11:04:31;;;;;;;7.22;3.45;;;;;;;7.13;32.08;99630.84;1767436;81;21132;-66
2021/03/25 11:07:19;;;;;;;8.10;3.60;;;;;;;7.20;32.80;99626.94;1689705;84;21183;-67
2021/03/25 11:10:01;;;;;;;7.30;3.42;;;;;;;7.26;32.57;99629.19;1767468;81;21164;-67
2021/03/25 11:12:31;;;;;;;6.78;3.65;;;;;;;7.36;32.12;99626.39;1767658;81;21294;-66
2021/03/25 11:15:02;;;;;;;7.65;3.60;;;;;;;7.43;32.96;99628.66;1767342;81;21314;-67
2021/03/25 11:17:34;;;;;;;5.67;3.05;;;;;;;7.48;33.04;99621.34;1767352;81;21112;-67
2021/03/25 11:20:07;;;;;;;5.70;3.80;;;;;;;7.51;31.60;99614.11;1767526;81;21188;-67
2021/03/25 11:22:36;;;;;;;8.48;4.20;;;;;;;7.49;31.56;99619.96;1739889;81;21168;-67
2021/03/25 11:25:07;;;;;;;4.62;3.25;;;;;;;7.52;32.49;99625.02;1689709;85;21297;-67
2021/03/25 11:27:34;;;;;;;7.37;3.42;;;;;;;7.60;31.78;99615.35;1769758;80;21152;-67
2021/03/25 11:30:24;;;;;;;7.35;3.70;;;;;;;7.61;30.86;99610.47;1772003;81;21314;-66
2021/03/25 11:32:51;;;;;;;6.70;3.30;;;;;;;7.68;31.28;99610.94;1772040;81;21175;-66
2021/03/25 11:35:39;;;;;;;4.87;2.90;;;;;;;7.74;30.26;99614.97;1705972;84;21132;-66
2021/03/25 11:38:28;;;;;;;4.83;3.20;;;;;;;7.73;30.20;99608.88;1771737;81;21191;-67
2021/03/25 11:41:17;;;;;;;4.62;3.27;;;;;;;7.74;30.59;99612.34;1771839;81;21159;-67
2021/03/25 11:43:53;;;;;;;6.58;3.30;;;;;;;7.76;30.61;99597.31;1706044;84;21286;-67
2021/03/25 11:46:41;;;;;;;6.17;3.02;;;;;;;7.73;30.09;99604.09;1771831;81;21180;-67
2021/03/25 11:49:21;;;;;;;5.53;3.70;;;;;;;7.68;29.78;99609.14;1771796;81;21140;-67
2021/03/25 11:51:59;;;;;;;5.70;3.17;;;;;;;7.67;30.63;99606.61;1705680;84;21148;-67
2021/03/25 11:54:32;;;;;;;4.83;3.30;;;;;;;7.61;30.50;99591.19;1771768;80;21278;-67
2021/03/25 11:57:23;;;;;;;5.87;3.00;;;;;;;7.51;30.82;99604.91;1772083;81;21306;-67
2021/03/25 12:00:07;;;;;;;4.05;3.00;;;;;;;7.49;30.32;99604.63;1705704;84;21176;-67
2021/03/25 12:02:38;;;;;;;7.12;3.45;;;;;;;7.48;31.49;99601.61;1680606;84;21200;-67
2021/03/25 12:05:27;;;;;;;5.65;2.80;;;;;;;7.53;31.00;99589.02;1771737;81;21155;-67
2021/03/25 12:08:16;;;;;;;6.67;3.70;;;;;;;7.54;30.72;99593.34;1770474;81;21180;-67
2021/03/25 12:10:46;;;;;;;7.28;4.37;;;;;;;7.54;31.74;99594.66;1705697;84;21204;-67
2021/03/25 12:13:13;;;;;;;6.90;3.90;;;;;;;7.53;31.49;99589.88;1750160;81;21180;-67
2021/03/25 12:15:43;;;;;;;6.37;4.12;;;;;;;7.52;31.34;99579.45;1705674;84;21152;-67
2021/03/25 12:18:34;;;;;;;4.97;3.05;;;;;;;7.54;31.29;99582.82;1705682;84;21644;-67
2021/03/25 12:21:08;;;;;;;6.05;3.15;;;;;;;7.66;31.35;99595.70;1769972;81;21148;-67
2021/03/25 12:23:38;;;;;;;6.58;3.35;;;;;;;7.74;31.48;99587.33;1771941;81;21572;-67
2021/03/25 12:26:13;;;;;;;4.28;2.83;;;;;;;7.76;31.49;99581.52;1771744;81;21338;-67
2021/03/25 12:28:40;;;;;;;7.30;3.33;;;;;;;7.77;30.67;99580.58;1705669;83;21208;-67
2021/03/25 12:31:19;;;;;;;8.08;3.85;;;;;;;7.78;31.10;99576.53;1705752;84;21160;-67
2021/03/25 12:33:48;;;;;;;4.70;3.15;;;;;;;7.83;31.09;99583.67;1768634;81;21322;-67
2021/03/25 12:36:17;;;;;;;5.75;3.65;;;;;;;7.90;30.27;99584.14;1771838;81;21195;-68